Time;durP1;ratioP1;P1;durP2;ratioP2;P2;SDS_P1;SDS_P2;PMS_P1;PMS_P2;Temp;Humidity;BMP_temperature;BMP_pressure;BME280_temperature;BME280_humidity;BME280_pressure;Samples;Min_cycle;Max_cycle;Signal;HPM_P1;HPM_P2
2022/11/14 00:01:33;;;;;;;14.40;13.00;;;7.90;99.90;;;;;;5037110;28;20188;-89
2022/11/14 00:03:58;;;;;;;13.80;12.33;;;7.90;99.90;;;;;;5054171;28;20212;-86
2022/11/14 00:06:24;;;;;;;13.80;12.40;;;7.90;99.90;;;;;;5046082;28;20217;-87
2022/11/14 00:08:50;;;;;;;13.87;12.57;;;8.00;99.90;;;;;;5047707;28;20196;-88
2022/11/14 00:11:15;;;;;;;12.93;11.77;;;8.00;99.90;;;;;;5038101;28;20197;-86
2022/11/14 00:13:41;;;;;;;13.87;12.47;;;8.10;99.90;;;;;;5051267;28;20215;-86
2022/11/14 00:16:06;;;;;;;13.10;11.77;;;8.00;99.90;;;;;;5055093;28;20280;-86
2022/11/14 00:18:32;;;;;;;13.33;11.87;;;8.10;99.90;;;;;;5034466;28;20177;-85
2022/11/14 00:20:57;;;;;;;13.63;12.43;;;8.10;99.90;;;;;;5055974;28;20192;-87
2022/11/14 00:23:23;;;;;;;13.47;12.07;;;8.10;99.90;;;;;;5050915;28;20320;-87
2022/11/14 00:25:49;;;;;;;12.70;11.47;;;8.00;99.90;;;;;;5042764;28;20803;-88
2022/11/14 00:28:14;;;;;;;13.77;12.37;;;8.00;99.90;;;;;;5052969;28;20758;-85
2022/11/14 00:30:40;;;;;;;12.93;11.73;;;8.00;99.90;;;;;;5050754;28;20188;-87
2022/11/14 00:33:06;;;;;;;12.83;11.30;;;7.90;99.90;;;;;;5043642;28;20219;-85
2022/11/14 00:35:31;;;;;;;11.87;10.67;;;7.80;99.90;;;;;;5058548;28;20219;-86
2022/11/14 00:37:57;;;;;;;12.53;11.23;;;7.90;99.90;;;;;;5047603;28;20681;-90
2022/11/14 00:40:22;;;;;;;12.80;11.33;;;7.90;99.90;;;;;;5049622;28;20191;-88
2022/11/14 00:42:48;;;;;;;12.43;10.97;;;7.90;99.90;;;;;;5048132;28;20215;-86
2022/11/14 00:45:14;;;;;;;11.33;10.30;;;7.90;99.90;;;;;;5037044;28;20193;-86
2022/11/14 00:47:39;;;;;;;12.80;11.03;;;7.90;99.90;;;;;;5034144;28;20213;-88
2022/11/14 00:50:05;;;;;;;12.30;11.00;;;8.00;99.90;;;;;;5048727;28;20192;-90
2022/11/14 00:52:31;;;;;;;11.47;10.37;;;7.90;99.90;;;;;;5034548;28;20236;-86
2022/11/14 00:54:57;;;;;;;12.07;10.87;;;7.90;99.90;;;;;;5054841;28;20501;-85
2022/11/14 00:57:22;;;;;;;12.20;11.00;;;8.00;99.90;;;;;;5059285;28;20219;-89
2022/11/14 00:59:48;;;;;;;12.43;11.13;;;7.90;99.90;;;;;;5059109;28;20200;-87
2022/11/14 01:02:13;;;;;;;12.67;11.47;;;7.90;99.90;;;;;;5048555;28;20273;-88
2022/11/14 01:04:39;;;;;;;12.60;11.30;;;7.90;99.90;;;;;;5056854;28;20196;-86
2022/11/14 01:07:05;;;;;;;12.30;11.00;;;7.90;99.90;;;;;;5053778;28;20208;-91
2022/11/14 01:09:30;;;;;;;12.63;11.37;;;7.90;99.90;;;;;;5057271;28;20189;-89
2022/11/14 01:11:56;;;;;;;11.13;10.03;;;8.10;99.90;;;;;;5063517;28;20215;-89
2022/11/14 01:14:21;;;;;;;11.77;10.57;;;8.10;99.90;;;;;;5052598;28;20185;-86
2022/11/14 01:16:47;;;;;;;11.67;10.53;;;8.10;99.90;;;;;;5062272;28;20212;-86
2022/11/14 01:19:13;;;;;;;11.33;10.23;;;8.10;99.90;;;;;;5054072;28;20747;-86
2022/11/14 01:21:38;;;;;;;10.17;9.17;;;8.10;99.90;;;;;;5050815;28;20199;-87
2022/11/14 01:24:04;;;;;;;11.90;10.70;;;8.20;99.90;;;;;;5047707;28;20249;-86
2022/11/14 01:26:30;;;;;;;11.13;10.03;;;8.20;99.90;;;;;;5055646;28;20212;-86
2022/11/14 01:28:55;;;;;;;12.17;11.07;;;8.20;99.90;;;;;;5045540;28;20193;-85
2022/11/14 01:31:23;;;;;;;10.60;9.57;;;8.00;99.90;;;;;;5047319;28;20664;-88
2022/11/14 01:33:50;;;;;;;11.13;10.07;;;8.00;99.90;;;;;;5051130;28;20221;-86
2022/11/14 01:36:16;;;;;;;10.60;9.60;;;7.90;99.90;;;;;;5048334;28;20205;-87
2022/11/14 01:38:41;;;;;;;10.47;9.47;;;8.00;99.90;;;;;;5053624;28;20323;-88
2022/11/14 01:41:08;;;;;;;10.20;9.30;;;8.10;99.90;;;;;;5058519;28;20192;-88
2022/11/14 01:43:36;;;;;;;10.60;9.60;;;8.10;99.90;;;;;;5056478;28;20192;-84
2022/11/14 01:46:06;;;;;;;11.10;10.10;;;8.00;99.90;;;;;;5050796;28;20192;-86
2022/11/14 01:48:50;;;;;;;11.60;10.40;;;8.00;99.90;;;;;;5053815;28;20189;-92
2022/11/14 01:51:22;;;;;;;12.53;11.27;;;8.10;99.90;;;;;;5071866;28;20184;-92
2022/11/14 01:53:50;;;;;;;12.00;10.80;;;7.90;99.90;;;;;;5060204;28;20220;-86
2022/11/14 01:56:21;;;;;;;12.73;11.43;;;7.80;99.90;;;;;;5061098;28;20209;-85
2022/11/14 01:58:56;;;;;;;12.53;11.33;;;7.70;99.90;;;;;;5044185;28;20590;-88
2022/11/14 02:01:24;;;;;;;11.87;10.67;;;7.70;99.90;;;;;;5033677;28;20335;-89
2022/11/14 02:03:52;;;;;;;12.33;11.13;;;7.80;99.90;;;;;;5058066;28;20181;-87
2022/11/14 02:06:19;;;;;;;11.67;10.57;;;7.90;99.90;;;;;;5058047;28;20243;-85
2022/11/14 02:08:46;;;;;;;12.73;11.40;;;7.90;99.90;;;;;;5024862;28;20208;-86
2022/11/14 02:11:12;;;;;;;12.17;10.87;;;7.90;99.90;;;;;;5049384;28;20180;-88
2022/11/14 02:13:38;;;;;;;11.63;10.43;;;7.90;99.90;;;;;;5057539;28;20228;-87
2022/11/14 02:16:04;;;;;;;12.60;11.30;;;7.90;99.90;;;;;;5048105;28;20188;-85
2022/11/14 02:18:30;;;;;;;11.77;10.57;;;7.90;99.90;;;;;;5049853;28;20223;-86
2022/11/14 02:20:56;;;;;;;13.27;11.87;;;7.90;99.90;;;;;;5056477;28;20177;-86
2022/11/14 02:23:27;;;;;;;11.80;10.60;;;7.70;99.90;;;;;;5043962;28;20183;-90
2022/11/14 02:25:53;;;;;;;11.63;10.40;;;7.70;99.90;;;;;;5036264;28;20619;-87
2022/11/14 02:28:20;;;;;;;13.43;12.13;;;7.70;99.90;;;;;;5052912;28;20208;-87
2022/11/14 02:30:46;;;;;;;13.43;11.60;;;7.80;99.90;;;;;;5038683;28;20278;-86
2022/11/14 02:33:12;;;;;;;12.27;11.07;;;7.80;99.90;;;;;;5042266;28;20247;-88
2022/11/14 02:35:37;;;;;;;12.97;11.67;;;7.80;99.90;;;;;;5052534;28;20181;-86
2022/11/14 02:38:03;;;;;;;12.73;11.53;;;7.80;99.90;;;;;;5054790;28;20204;-86
2022/11/14 02:40:29;;;;;;;13.13;11.47;;;7.80;99.90;;;;;;5046202;28;20190;-87
2022/11/14 02:42:55;;;;;;;12.00;10.80;;;7.90;99.90;;;;;;5045011;28;20821;-86
2022/11/14 02:45:20;;;;;;;13.50;12.10;;;7.90;99.90;;;;;;5053039;28;20238;-87
2022/11/14 02:47:46;;;;;;;14.00;11.93;;;7.90;99.90;;;;;;5055167;28;20200;-86
2022/11/14 02:50:12;;;;;;;13.53;12.13;;;7.90;99.90;;;;;;5056647;28;20204;-86
2022/11/14 02:52:37;;;;;;;13.07;11.67;;;7.60;99.90;;;;;;5048535;28;20204;-86
2022/11/14 02:55:04;;;;;;;12.77;11.50;;;7.40;99.90;;;;;;5027739;28;20180;-85
2022/11/14 02:57:30;;;;;;;12.67;11.40;;;7.40;99.90;;;;;;5032710;28;20296;-88
2022/11/14 02:59:55;;;;;;;12.57;11.03;;;7.50;99.90;;;;;;5048100;28;20220;-86
2022/11/14 03:02:21;;;;;;;12.23;11.03;;;7.60;99.90;;;;;;5037472;28;20189;-87
2022/11/14 03:04:47;;;;;;;12.83;11.43;;;7.50;99.90;;;;;;5047712;28;20601;-89
2022/11/14 03:07:12;;;;;;;12.33;11.03;;;7.50;99.90;;;;;;5052315;28;20218;-87
2022/11/14 03:09:38;;;;;;;13.10;11.80;;;7.60;99.90;;;;;;5058721;28;20183;-85
2022/11/14 03:12:04;;;;;;;13.33;11.53;;;7.60;99.90;;;;;;5055367;28;20287;-86
2022/11/14 03:14:30;;;;;;;12.03;10.73;;;7.60;99.90;;;;;;5049103;28;20500;-86
2022/11/14 03:16:56;;;;;;;12.50;10.93;;;7.50;99.90;;;;;;5056404;28;20208;-87
2022/11/14 03:19:22;;;;;;;12.73;11.40;;;7.50;99.90;;;;;;5045857;28;20326;-87
2022/11/14 03:21:48;;;;;;;12.33;11.13;;;7.50;99.90;;;;;;5050697;28;20184;-86
2022/11/14 03:24:13;;;;;;;12.60;11.30;;;7.50;99.90;;;;;;5046079;28;20273;-87
2022/11/14 03:26:39;;;;;;;11.70;10.50;;;7.40;99.90;;;;;;5047249;28;20278;-88
2022/11/14 03:29:05;;;;;;;12.77;11.47;;;7.40;99.90;;;;;;5053025;28;20279;-85
2022/11/14 03:31:30;;;;;;;11.90;10.60;;;7.30;99.90;;;;;;5049209;28;20211;-87
2022/11/14 03:33:56;;;;;;;12.53;11.23;;;7.30;99.90;;;;;;5051852;28;20312;-87
2022/11/14 03:36:22;;;;;;;12.50;10.87;;;7.40;99.90;;;;;;5049827;28;20205;-88
2022/11/14 03:38:49;;;;;;;10.80;9.70;;;7.40;99.90;;;;;;5053812;28;20180;-86
2022/11/14 03:41:14;;;;;;;12.17;10.70;;;7.30;99.90;;;;;;5046534;28;20189;-86
2022/11/14 03:43:40;;;;;;;12.60;11.20;;;7.20;99.90;;;;;;5045358;28;20660;-90
2022/11/14 03:46:05;;;;;;;11.60;10.50;;;7.20;99.90;;;;;;5053832;28;20192;-87
2022/11/14 03:48:31;;;;;;;11.77;10.57;;;7.20;99.90;;;;;;5059504;28;20203;-87
2022/11/14 03:50:57;;;;;;;11.07;9.93;;;7.30;99.90;;;;;;5059140;28;20884;-88
2022/11/14 03:53:23;;;;;;;12.77;11.30;;;7.40;99.90;;;;;;5028824;28;20200;-86
2022/11/14 03:55:50;;;;;;;10.93;9.90;;;7.40;99.90;;;;;;5052256;28;20266;-85
2022/11/14 03:58:16;;;;;;;11.07;10.07;;;7.30;99.90;;;;;;5050027;28;20207;-89
2022/11/14 04:00:41;;;;;;;11.37;10.30;;;7.30;99.90;;;;;;5059586;28;20177;-86
2022/11/14 04:03:10;;;;;;;11.53;10.33;;;7.40;99.90;;;;;;5056085;28;20201;-86
2022/11/14 04:05:36;;;;;;;11.63;10.43;;;7.30;99.90;;;;;;5057465;28;20196;-85
2022/11/14 04:08:04;;;;;;;11.67;9.97;;;7.20;99.90;;;;;;5065952;28;20299;-85
2022/11/14 04:10:30;;;;;;;10.23;9.23;;;7.30;99.90;;;;;;5068160;28;20455;-90
2022/11/14 04:12:55;;;;;;;11.17;9.90;;;7.40;99.90;;;;;;5056177;28;20264;-88
2022/11/14 04:15:21;;;;;;;11.87;10.57;;;7.40;99.90;;;;;;5060101;28;20245;-88
2022/11/14 04:17:47;;;;;;;10.77;9.67;;;7.40;99.90;;;;;;5054793;28;20223;-86
2022/11/14 04:20:13;;;;;;;11.23;10.10;;;7.40;99.90;;;;;;5056215;28;20180;-84
2022/11/14 04:22:39;;;;;;;11.20;10.13;;;7.50;99.90;;;;;;5063425;28;20188;-85
2022/11/14 04:25:06;;;;;;;11.93;10.73;;;7.50;99.90;;;;;;5061800;28;20191;-85
2022/11/14 04:27:31;;;;;;;11.80;10.70;;;7.50;99.90;;;;;;5054364;28;20735;-86
2022/11/14 04:29:57;;;;;;;11.87;10.67;;;7.40;99.90;;;;;;5042519;28;20197;-88
2022/11/14 04:32:23;;;;;;;12.40;11.20;;;7.40;99.90;;;;;;5042426;28;20243;-87
2022/11/14 04:34:48;;;;;;;13.17;11.83;;;7.20;99.90;;;;;;5058002;28;20200;-86
2022/11/14 04:37:14;;;;;;;12.20;10.43;;;7.10;99.90;;;;;;5054058;28;20227;-88
2022/11/14 04:39:39;;;;;;;11.43;10.43;;;7.20;99.90;;;;;;5051352;28;20649;-86
2022/11/14 04:42:05;;;;;;;13.00;11.70;;;7.30;99.90;;;;;;5056463;28;20267;-87
2022/11/14 04:44:31;;;;;;;13.27;11.90;;;7.30;99.90;;;;;;5042512;28;20184;-86
2022/11/14 04:46:56;;;;;;;12.33;11.03;;;7.20;99.90;;;;;;5049535;28;20235;-87
2022/11/14 04:49:22;;;;;;;12.53;11.30;;;7.20;99.90;;;;;;5055914;28;20195;-86
2022/11/14 04:51:48;;;;;;;12.57;10.83;;;7.30;99.90;;;;;;5047821;28;20196;-84
2022/11/14 04:54:14;;;;;;;12.37;11.10;;;7.40;99.90;;;;;;5054100;28;20530;-85
2022/11/14 04:56:40;;;;;;;11.10;9.93;;;7.30;99.90;;;;;;5055127;28;20203;-87
2022/11/14 04:59:05;;;;;;;13.33;11.93;;;7.40;99.90;;;;;;5057666;28;20274;-88
2022/11/14 05:01:31;;;;;;;11.70;10.50;;;7.30;99.90;;;;;;5056647;28;20390;-87
2022/11/14 05:03:57;;;;;;;11.80;10.60;;;7.20;99.90;;;;;;5053695;28;20193;-86
2022/11/14 05:06:22;;;;;;;12.87;11.47;;;7.30;99.90;;;;;;5048833;28;20208;-86
2022/11/14 05:08:48;;;;;;;12.23;11.13;;;7.40;99.90;;;;;;5055294;28;20741;-85
2022/11/14 05:11:15;;;;;;;11.60;10.47;;;7.30;99.90;;;;;;5053913;28;20188;-87
2022/11/14 05:13:41;;;;;;;11.77;10.63;;;7.40;99.90;;;;;;5054311;28;20208;-87
2022/11/14 05:16:07;;;;;;;12.20;11.10;;;7.30;99.90;;;;;;5050344;28;20184;-85
2022/11/14 05:18:32;;;;;;;12.73;11.43;;;7.30;99.90;;;;;;5055222;28;20204;-85
2022/11/14 05:20:59;;;;;;;12.97;11.77;;;7.40;99.90;;;;;;5051605;28;20660;-85
2022/11/14 05:23:26;;;;;;;13.27;11.97;;;7.40;99.90;;;;;;5059806;28;20207;-92
2022/11/14 05:26:03;;;;;;;13.13;11.90;;;7.30;99.90;;;;;;5068302;28;20240;-91
2022/11/14 05:28:29;;;;;;;13.10;11.80;;;7.30;99.90;;;;;;5075970;28;20195;-88
2022/11/14 05:31:06;;;;;;;12.43;11.23;;;7.30;99.90;;;;;;5062709;28;20179;-85
2022/11/14 05:33:33;;;;;;;12.07;10.97;;;7.30;99.90;;;;;;5054302;28;20214;-87
2022/11/14 05:36:10;;;;;;;12.73;11.50;;;7.10;99.90;;;;;;5058326;28;20207;-86
2022/11/14 05:38:36;;;;;;;15.70;11.50;;;7.00;99.90;;;;;;5060672;28;20181;-87
2022/11/14 05:41:10;;;;;;;13.00;11.70;;;7.00;99.90;;;;;;5050891;28;20193;-85
2022/11/14 05:43:36;;;;;;;13.43;12.20;;;7.00;99.90;;;;;;5054716;28;20185;-84
2022/11/14 05:46:04;;;;;;;12.63;11.37;;;6.90;99.90;;;;;;5057758;28;20222;-86
2022/11/14 05:48:30;;;;;;;12.17;10.97;;;7.00;99.90;;;;;;5056562;28;20221;-90
2022/11/14 05:50:57;;;;;;;13.10;11.80;;;7.00;99.90;;;;;;5058729;28;20196;-88
2022/11/14 05:53:23;;;;;;;17.13;15.43;;;7.10;99.90;;;;;;5076398;28;20204;-89
2022/11/14 05:55:48;;;;;;;16.63;14.93;;;7.20;99.90;;;;;;5068407;28;20173;-89
2022/11/14 05:58:14;;;;;;;13.80;12.57;;;7.20;99.90;;;;;;5068121;28;20208;-85
2022/11/14 06:00:40;;;;;;;13.57;12.27;;;7.30;99.90;;;;;;5076044;28;20203;-84
2022/11/14 06:03:05;;;;;;;14.20;12.70;;;7.30;99.90;;;;;;5064902;28;20711;-86
2022/11/14 06:05:33;;;;;;;16.37;14.10;;;7.30;99.90;;;;;;5052610;28;20660;-88
2022/11/14 06:07:59;;;;;;;16.00;14.37;;;7.30;99.90;;;;;;5048199;28;20224;-84
2022/11/14 06:10:25;;;;;;;17.67;15.87;;;7.30;99.90;;;;;;5056522;28;20690;-84
2022/11/14 06:12:51;;;;;;;15.57;14.00;;;7.10;99.90;;;;;;5036024;28;20247;-86
2022/11/14 06:15:17;;;;;;;13.83;12.53;;;7.10;99.90;;;;;;5054899;28;20188;-86
2022/11/14 06:17:43;;;;;;;14.23;12.80;;;7.10;99.90;;;;;;5052607;28;20682;-84
2022/11/14 06:20:09;;;;;;;14.83;13.33;;;7.10;99.90;;;;;;5057072;28;20195;-85
2022/11/14 06:22:35;;;;;;;12.23;11.20;;;7.20;99.90;;;;;;5054102;28;20294;-84
2022/11/14 06:25:01;;;;;;;12.90;11.70;;;7.30;99.90;;;;;;5048587;28;20211;-88
2022/11/14 06:27:27;;;;;;;13.00;11.80;;;7.20;99.90;;;;;;5032221;28;20212;-88
2022/11/14 06:29:52;;;;;;;12.10;10.93;;;7.10;99.90;;;;;;5043314;28;20191;-86
2022/11/14 06:32:18;;;;;;;12.90;11.60;;;7.10;99.90;;;;;;5049644;28;20184;-84
2022/11/14 06:34:43;;;;;;;12.93;11.70;;;7.10;99.90;;;;;;5034602;28;20207;-85
2022/11/14 06:37:09;;;;;;;10.50;9.57;;;7.10;99.90;;;;;;5054616;28;20487;-86
2022/11/14 06:39:35;;;;;;;11.03;10.03;;;7.10;99.90;;;;;;5049708;28;20189;-86
2022/11/14 06:42:00;;;;;;;10.67;9.73;;;7.20;99.90;;;;;;5053656;28;20389;-84
2022/11/14 06:44:26;;;;;;;10.60;9.70;;;7.20;99.90;;;;;;5063663;28;20295;-84
2022/11/14 06:46:51;;;;;;;10.17;9.27;;;7.20;99.90;;;;;;5052154;28;20212;-86
2022/11/14 06:49:17;;;;;;;10.80;9.90;;;7.20;99.90;;;;;;5054733;28;20208;-87
2022/11/14 06:51:43;;;;;;;10.60;9.50;;;7.20;99.90;;;;;;5061887;28;20188;-84
2022/11/14 06:54:11;;;;;;;10.07;9.13;;;7.10;99.90;;;;;;5054883;28;20212;-87
2022/11/14 06:56:37;;;;;;;11.00;10.00;;;7.00;99.90;;;;;;5061359;28;20204;-86
2022/11/14 06:59:03;;;;;;;11.60;10.60;;;6.90;99.90;;;;;;5061430;28;20195;-86
2022/11/14 07:01:28;;;;;;;11.27;10.27;;;7.00;99.90;;;;;;5057645;28;20200;-88
2022/11/14 07:03:57;;;;;;;10.40;9.40;;;7.10;99.90;;;;;;5056128;28;20189;-91
2022/11/14 07:06:25;;;;;;;10.13;9.13;;;7.20;99.90;;;;;;5057346;28;20206;-85
2022/11/14 07:08:51;;;;;;;9.90;8.90;;;7.30;99.90;;;;;;5034959;28;20193;-85
2022/11/14 07:11:24;;;;;;;10.97;9.50;;;7.40;99.90;;;;;;5060153;28;20188;-88
2022/11/14 07:13:57;;;;;;;10.23;9.23;;;7.40;99.90;;;;;;5060224;28;20213;-87
2022/11/14 07:16:31;;;;;;;10.43;9.53;;;7.30;99.90;;;;;;5055159;28;20200;-87
2022/11/14 07:18:57;;;;;;;10.67;9.73;;;7.20;99.90;;;;;;5063536;28;20168;-88
2022/11/14 07:21:24;;;;;;;10.17;9.27;;;7.00;99.90;;;;;;5049508;28;20185;-85
2022/11/14 07:23:50;;;;;;;10.90;9.90;;;6.90;99.90;;;;;;5038479;28;20196;-89
2022/11/14 07:26:16;;;;;;;9.73;8.93;;;6.90;99.90;;;;;;5056030;28;20188;-87
2022/11/14 07:28:43;;;;;;;10.57;9.67;;;6.90;99.90;;;;;;5053735;28;20560;-88
2022/11/14 07:31:14;;;;;;;9.60;8.70;;;6.90;99.90;;;;;;5056780;28;20188;-89
2022/11/14 07:33:40;;;;;;;11.40;10.40;;;7.00;99.90;;;;;;5047529;28;20275;-88
2022/11/14 07:36:07;;;;;;;12.50;11.40;;;7.10;99.90;;;;;;5051567;28;20243;-87
2022/11/14 07:38:34;;;;;;;12.83;11.63;;;7.10;99.90;;;;;;5047417;28;20200;-86
2022/11/14 07:41:07;;;;;;;11.50;10.40;;;7.10;99.90;;;;;;5034341;28;20242;-86
2022/11/14 07:43:32;;;;;;;10.77;9.77;;;7.10;99.90;;;;;;5046952;28;20184;-86
2022/11/14 07:46:07;;;;;;;10.90;9.90;;;7.10;99.90;;;;;;5046892;28;20185;-85
2022/11/14 07:48:33;;;;;;;10.40;9.17;;;7.10;99.90;;;;;;5044749;28;20184;-88
2022/11/14 07:50:59;;;;;;;13.07;11.77;;;7.10;99.90;;;;;;5049652;28;20223;-86
2022/11/14 07:53:25;;;;;;;12.47;11.37;;;7.00;99.90;;;;;;5047762;28;20203;-86
2022/11/14 07:55:51;;;;;;;10.53;9.63;;;7.10;99.90;;;;;;5043290;28;20180;-85
2022/11/14 07:58:17;;;;;;;10.10;9.10;;;7.20;99.90;;;;;;5044863;28;20205;-86
2022/11/14 08:00:42;;;;;;;9.80;8.80;;;7.20;99.90;;;;;;5049652;28;20546;-86
2022/11/14 08:03:09;;;;;;;9.20;8.40;;;7.10;99.90;;;;;;5038376;28;20181;-86
2022/11/14 08:05:35;;;;;;;8.70;7.90;;;7.10;99.90;;;;;;5048973;28;20181;-88
2022/11/14 08:08:00;;;;;;;9.50;8.60;;;7.20;99.90;;;;;;5045829;28;20200;-86
2022/11/14 08:10:26;;;;;;;10.60;9.60;;;7.40;99.90;;;;;;5046841;28;20263;-90
2022/11/14 08:12:59;;;;;;;9.57;8.70;;;7.40;99.90;;;;;;5051971;28;20209;-87
2022/11/14 08:15:26;;;;;;;9.47;8.67;;;7.60;99.90;;;;;;5044650;28;20173;-86
2022/11/14 08:17:52;;;;;;;9.77;8.80;;;7.60;99.90;;;;;;5047293;28;20204;-86
2022/11/14 08:20:17;;;;;;;10.07;9.17;;;7.70;99.90;;;;;;5058285;28;20184;-86
2022/11/14 08:22:43;;;;;;;8.87;8.07;;;7.70;99.90;;;;;;5043174;28;20218;-86
2022/11/14 08:25:09;;;;;;;9.17;8.30;;;7.80;99.90;;;;;;5044456;28;20190;-91
2022/11/14 08:27:34;;;;;;;9.37;8.57;;;7.90;99.90;;;;;;5044824;28;20293;-85
2022/11/14 08:30:00;;;;;;;10.33;9.33;;;7.90;99.90;;;;;;5041632;28;20203;-85
2022/11/14 08:32:28;;;;;;;8.50;7.70;;;7.90;99.90;;;;;;5043504;28;20195;-86
2022/11/14 08:34:54;;;;;;;10.03;9.13;;;7.80;99.90;;;;;;5040200;28;20192;-86
2022/11/14 08:37:19;;;;;;;10.33;9.50;;;7.90;99.90;;;;;;5046739;28;20200;-90
2022/11/14 08:39:45;;;;;;;9.97;9.00;;;7.90;99.90;;;;;;5047513;28;20189;-86
2022/11/14 08:42:10;;;;;;;10.27;9.37;;;8.00;99.90;;;;;;5051862;28;20188;-87
2022/11/14 08:44:36;;;;;;;9.40;8.50;;;8.10;99.90;;;;;;5046622;28;20184;-87
2022/11/14 08:47:02;;;;;;;9.63;8.73;;;8.10;99.90;;;;;;5046251;28;20208;-87
2022/11/14 08:49:28;;;;;;;8.97;8.17;;;8.10;99.60;;;;;;5048316;28;20652;-88
2022/11/14 08:51:54;;;;;;;11.50;10.40;;;8.10;99.70;;;;;;5046964;28;20273;-85
2022/11/14 08:54:19;;;;;;;11.17;9.77;;;8.10;99.90;;;;;;5041705;28;20205;-87
2022/11/14 08:56:45;;;;;;;12.80;11.70;;;8.00;99.60;;;;;;5048712;28;20239;-88
2022/11/14 08:59:11;;;;;;;10.67;9.77;;;8.00;99.90;;;;;;5044886;28;20189;-87
2022/11/14 09:01:36;;;;;;;9.27;8.37;;;8.00;99.90;;;;;;5050663;28;20263;-89
2022/11/14 09:04:02;;;;;;;11.17;10.03;;;7.90;99.90;;;;;;5053462;28;20189;-94
2022/11/14 09:06:28;;;;;;;11.30;10.30;;;8.00;99.90;;;;;;5073955;28;20196;-94
2022/11/14 09:08:54;;;;;;;10.83;9.93;;;7.90;99.90;;;;;;5070620;28;20169;-86
2022/11/14 09:11:19;;;;;;;9.83;8.83;;;7.90;99.90;;;;;;5040857;28;20189;-87
2022/11/14 09:13:45;;;;;;;11.80;10.70;;;7.90;99.90;;;;;;5039060;28;20220;-87
2022/11/14 09:16:11;;;;;;;11.47;10.47;;;7.90;99.90;;;;;;5053308;28;20263;-88
2022/11/14 09:18:37;;;;;;;10.03;9.13;;;7.90;99.90;;;;;;5051598;28;20192;-90
2022/11/14 09:21:07;;;;;;;9.47;8.57;;;7.90;99.90;;;;;;5048509;28;20184;-87
2022/11/14 09:23:34;;;;;;;10.90;9.90;;;8.10;99.90;;;;;;5057090;28;20733;-87
2022/11/14 09:26:04;;;;;;;11.60;10.50;;;8.20;99.90;;;;;;5042572;28;20193;-87
2022/11/14 09:28:30;;;;;;;9.60;8.80;;;8.20;99.90;;;;;;5049133;28;20188;-87
2022/11/14 09:31:06;;;;;;;10.30;9.40;;;8.20;99.90;;;;;;5051381;28;20217;-86
2022/11/14 09:33:33;;;;;;;9.90;9.10;;;8.40;99.20;;;;;;5056853;28;20223;-87
2022/11/14 09:36:04;;;;;;;9.67;8.77;;;8.40;98.60;;;;;;5048088;28;20193;-87
2022/11/14 09:38:30;;;;;;;10.13;9.33;;;8.40;98.70;;;;;;5058313;28;20189;-87
2022/11/14 09:41:07;;;;;;;11.07;9.93;;;8.20;99.00;;;;;;5051903;28;20601;-88
2022/11/14 09:44:04;;;;;;;10.37;9.23;;;8.20;99.90;;;;;;5057604;28;20180;-85
2022/11/14 09:46:55;;;;;;;9.77;8.87;;;8.30;98.70;;;;;;5048308;28;20538;-86
2022/11/14 09:49:40;;;;;;;9.70;8.80;;;8.30;98.50;;;;;;5050548;28;20176;-86
2022/11/14 09:52:14;;;;;;;9.37;8.47;;;8.30;99.00;;;;;;5056263;28;20187;-88
2022/11/14 09:55:04;;;;;;;10.13;9.17;;;8.20;99.50;;;;;;5029086;28;20200;-88
2022/11/14 09:57:30;;;;;;;9.37;8.47;;;8.30;99.50;;;;;;5037544;28;20277;-87
2022/11/14 09:59:56;;;;;;;11.33;10.33;;;8.40;98.80;;;;;;5052436;28;20219;-86
2022/11/14 10:02:40;;;;;;;9.67;8.73;;;8.40;99.20;;;;;;5056428;28;20675;-87
2022/11/14 10:05:33;;;;;;;9.60;8.80;;;8.40;98.50;;;;;;5057494;28;20192;-87
2022/11/14 10:08:23;;;;;;;10.07;9.07;;;8.50;98.70;;;;;;5050041;28;20205;-88
2022/11/14 10:11:04;;;;;;;9.80;8.87;;;8.50;98.60;;;;;;5049567;28;20180;-87
2022/11/14 10:14:00;;;;;;;10.53;9.53;;;8.50;98.80;;;;;;5048784;28;20205;-86
2022/11/14 10:17:04;;;;;;;13.90;12.60;;;8.40;98.70;;;;;;5056418;28;20215;-86
2022/11/14 10:19:48;;;;;;;10.27;9.37;;;8.40;99.80;;;;;;5027076;28;20231;-87
2022/11/14 10:22:33;;;;;;;10.07;9.20;;;8.30;99.60;;;;;;5054568;28;20175;-86
2022/11/14 10:25:17;;;;;;;10.43;9.43;;;8.30;99.60;;;;;;5022334;28;20261;-87
2022/11/14 10:28:06;;;;;;;10.07;9.17;;;8.40;99.30;;;;;;5048657;28;20738;-86
2022/11/14 10:30:41;;;;;;;10.13;8.97;;;8.40;99.40;;;;;;5020421;28;20201;-88
2022/11/14 10:33:25;;;;;;;10.50;9.50;;;8.30;99.20;;;;;;5054632;28;20286;-87
2022/11/14 10:36:02;;;;;;;10.47;9.37;;;8.30;99.30;;;;;;5058065;28;20214;-88
2022/11/14 10:38:35;;;;;;;10.40;9.43;;;8.30;99.90;;;;;;5052605;28;20185;-90
2022/11/14 10:41:04;;;;;;;10.30;9.40;;;8.30;99.40;;;;;;5064191;28;20200;-89
2022/11/14 10:43:35;;;;;;;9.77;8.97;;;8.30;99.80;;;;;;5068410;28;20433;-90
2022/11/14 10:46:13;;;;;;;13.27;9.77;;;8.40;99.90;;;;;;5055228;28;20184;-87
2022/11/14 10:48:46;;;;;;;10.73;9.03;;;8.40;99.60;;;;;;5060905;28;20196;-85
2022/11/14 10:51:49;;;;;;;11.40;10.07;;;8.40;99.80;;;;;;5056108;28;20284;-86
2022/11/14 10:54:31;;;;;;;10.17;9.27;;;8.40;99.60;;;;;;5001693;28;20224;-85
2022/11/14 10:56:56;;;;;;;13.30;8.90;;;8.50;99.90;;;;;;5049705;28;20203;-85
2022/11/14 10:59:22;;;;;;;11.10;10.00;;;8.50;99.90;;;;;;5050650;28;20226;-87
2022/11/14 11:01:54;;;;;;;10.83;9.70;;;8.60;99.50;;;;;;5038169;28;20204;-86
2022/11/14 11:04:34;;;;;;;10.83;9.83;;;8.60;99.60;;;;;;5064094;28;20177;-84
2022/11/14 11:07:08;;;;;;;11.30;9.53;;;8.70;99.10;;;;;;5056774;28;20212;-88
2022/11/14 11:12:37;;;;;;;11.27;10.13;;;8.70;99.20;;;;;;5053708;28;20192;-88
2022/11/14 11:15:16;;;;;;;9.80;8.90;;;8.70;98.60;;;;;;5045643;28;20199;-86
2022/11/14 11:17:55;;;;;;;10.57;9.23;;;8.70;99.50;;;;;;5050520;28;20282;-87
2022/11/14 11:20:36;;;;;;;11.07;9.97;;;8.80;99.30;;;;;;5047540;28;20192;-87
2022/11/14 11:23:08;;;;;;;11.07;10.17;;;8.80;99.30;;;;;;5038641;28;20196;-86
2022/11/14 11:25:35;;;;;;;10.90;9.90;;;8.80;98.70;;;;;;5035338;28;20190;-86
2022/11/14 11:28:19;;;;;;;10.70;9.60;;;8.90;98.90;;;;;;5047677;28;20218;-86
2022/11/14 11:30:54;;;;;;;10.40;9.50;;;8.90;99.40;;;;;;5048950;28;20681;-87
2022/11/14 11:33:20;;;;;;;11.30;10.40;;;8.90;98.90;;;;;;5031171;28;20284;-85
2022/11/14 11:35:48;;;;;;;11.60;10.50;;;9.00;98.40;;;;;;5032743;28;20194;-85
2022/11/14 11:38:18;;;;;;;10.73;9.83;;;8.80;97.50;;;;;;5050093;28;20240;-86
2022/11/14 11:40:47;;;;;;;10.43;8.87;;;8.80;98.10;;;;;;5032301;28;20178;-86
2022/11/14 11:43:29;;;;;;;10.17;9.17;;;8.90;98.50;;;;;;5050235;28;20273;-88
2022/11/14 11:45:57;;;;;;;13.70;12.53;;;9.00;98.20;;;;;;5046169;28;20189;-89
2022/11/14 11:48:31;;;;;;;25.63;23.33;;;9.10;97.60;;;;;;5043904;28;20771;-87
2022/11/14 11:50:56;;;;;;;13.00;11.70;;;9.20;97.30;;;;;;5054134;28;20218;-88
2022/11/14 11:53:35;;;;;;;12.77;11.10;;;9.10;97.50;;;;;;5046914;28;20618;-87
2022/11/14 11:56:30;;;;;;;14.30;12.90;;;9.30;96.20;;;;;;5047289;28;20182;-86
2022/11/14 11:59:12;;;;;;;12.93;11.67;;;9.40;96.00;;;;;;5049091;28;20198;-89
2022/11/14 12:01:38;;;;;;;14.33;12.93;;;9.40;96.70;;;;;;5052023;28;20181;-87
2022/11/14 12:04:04;;;;;;;12.90;11.60;;;9.50;95.70;;;;;;5047104;28;20193;-88
2022/11/14 12:06:38;;;;;;;15.33;13.93;;;9.70;95.10;;;;;;5046917;28;20203;-88
2022/11/14 12:09:07;;;;;;;12.00;10.83;;;9.80;94.80;;;;;;5056221;28;20188;-87
2022/11/14 12:11:36;;;;;;;12.07;10.87;;;9.70;95.20;;;;;;5045928;28;20206;-89
2022/11/14 12:14:02;;;;;;;12.13;10.60;;;9.60;95.80;;;;;;5049533;28;20206;-88
2022/11/14 12:16:50;;;;;;;11.77;10.67;;;9.70;95.20;;;;;;5051416;28;20285;-87
2022/11/14 12:19:15;;;;;;;13.07;11.03;;;9.70;95.00;;;;;;5059569;28;20183;-86
2022/11/14 12:21:59;;;;;;;12.07;10.90;;;9.70;93.90;;;;;;5066286;28;20647;-84
2022/11/14 12:24:48;;;;;;;12.00;10.80;;;10.10;93.50;;;;;;5058813;28;20186;-88
2022/11/14 12:27:38;;;;;;;12.90;11.13;;;10.50;89.90;;;;;;5053649;28;20202;-86
2022/11/14 12:30:23;;;;;;;11.20;10.20;;;10.70;89.60;;;;;;5056081;28;20187;-86
2022/11/14 12:32:53;;;;;;;11.80;10.60;;;10.60;91.10;;;;;;5036737;28;20615;-90
2022/11/14 12:35:26;;;;;;;11.80;10.80;;;10.80;90.60;;;;;;5049788;28;20216;-88
2022/11/14 12:37:54;;;;;;;11.13;10.13;;;11.30;87.40;;;;;;5053390;28;20216;-87
2022/11/14 12:40:46;;;;;;;11.30;10.07;;;11.70;85.90;;;;;;5044066;28;20185;-86
2022/11/14 12:43:37;;;;;;;11.87;10.77;;;11.60;87.00;;;;;;5035168;28;20196;-86
2022/11/14 12:46:10;;;;;;;11.90;10.80;;;11.50;86.40;;;;;;5055917;28;20173;-91
2022/11/14 12:48:42;;;;;;;11.27;10.17;;;11.50;85.80;;;;;;5052767;28;20180;-93
2022/11/14 12:51:24;;;;;;;11.07;9.97;;;11.20;89.40;;;;;;5078487;28;20206;-83
2022/11/14 12:53:50;;;;;;;10.10;9.20;;;10.80;91.30;;;;;;5045291;28;20215;-87